Time;durP1;ratioP1;P1;durP2;ratioP2;P2;SDS_P1;SDS_P2;PMS_P1;PMS_P2;Temp;Humidity;BMP_temperature;BMP_pressure;BME280_temperature;BME280_humidity;BME280_pressure;Samples;Min_cycle;Max_cycle;Signal;HPM_P1;HPM_P2
2023/12/22 00:00:08;;;;;;;67.13;26.33;;;;;;;;;;4929186;29;20296;-73
2023/12/22 00:02:33;;;;;;;64.30;25.53;;;;;;;;;;4928253;29;20332;-73
2023/12/22 00:04:59;;;;;;;56.87;24.17;;;;;;;;;;4926804;29;20237;-73
2023/12/22 00:07:24;;;;;;;58.00;24.33;;;;;;;;;;4926742;29;20251;-73
2023/12/22 00:09:49;;;;;;;60.23;25.47;;;;;;;;;;4928763;29;20244;-73
2023/12/22 00:12:15;;;;;;;57.73;24.47;;;;;;;;;;4928613;29;20285;-74
2023/12/22 00:14:40;;;;;;;58.37;24.00;;;;;;;;;;4927988;29;20253;-73
2023/12/22 00:17:05;;;;;;;62.67;24.63;;;;;;;;;;4912529;29;20309;-72
2023/12/22 00:19:31;;;;;;;55.83;23.93;;;;;;;;;;4911569;29;20300;-73
2023/12/22 00:21:58;;;;;;;52.93;22.57;;;;;;;;;;4926764;29;20885;-73
2023/12/22 00:24:23;;;;;;;50.37;21.13;;;;;;;;;;4927088;29;20225;-74
2023/12/22 00:26:48;;;;;;;45.87;19.97;;;;;;;;;;4910511;29;20240;-72
2023/12/22 00:29:14;;;;;;;48.27;20.77;;;;;;;;;;4928486;29;20225;-73
2023/12/22 00:31:39;;;;;;;57.97;23.83;;;;;;;;;;4927537;29;20229;-73
2023/12/22 00:34:04;;;;;;;54.33;22.20;;;;;;;;;;4927106;29;20259;-74
2023/12/22 00:36:30;;;;;;;52.33;20.50;;;;;;;;;;4910520;29;20248;-73
2023/12/22 00:38:55;;;;;;;49.67;20.53;;;;;;;;;;4926175;29;20217;-74
2023/12/22 00:41:20;;;;;;;49.87;20.77;;;;;;;;;;4910304;29;20221;-73
2023/12/22 00:43:46;;;;;;;51.57;19.90;;;;;;;;;;4925775;29;20738;-72
2023/12/22 00:46:11;;;;;;;50.40;21.07;;;;;;;;;;4926571;29;20244;-75
2023/12/22 00:48:36;;;;;;;48.53;19.87;;;;;;;;;;4910840;29;20256;-73
2023/12/22 00:51:02;;;;;;;54.77;20.87;;;;;;;;;;4925922;29;20280;-72
2023/12/22 00:53:28;;;;;;;51.40;20.43;;;;;;;;;;4909978;29;20222;-74
2023/12/22 00:55:53;;;;;;;49.63;20.57;;;;;;;;;;4926048;29;20300;-73
2023/12/22 00:58:18;;;;;;;50.63;20.07;;;;;;;;;;4910915;29;20225;-74
2023/12/22 01:00:44;;;;;;;47.67;19.53;;;;;;;;;;4926917;29;20301;-74
2023/12/22 01:03:11;;;;;;;49.30;20.40;;;;;;;;;;4910100;29;20222;-73
2023/12/22 01:05:37;;;;;;;43.60;19.00;;;;;;;;;;4910202;29;20257;-73
2023/12/22 01:08:02;;;;;;;48.63;20.47;;;;;;;;;;4910635;29;20334;-72
2023/12/22 01:10:27;;;;;;;45.50;19.30;;;;;;;;;;4926362;29;20296;-72
2023/12/22 01:12:53;;;;;;;49.83;20.27;;;;;;;;;;4927108;29;20229;-73
2023/12/22 01:15:18;;;;;;;51.40;20.90;;;;;;;;;;4925663;29;20292;-72
2023/12/22 01:17:43;;;;;;;54.60;22.53;;;;;;;;;;4925705;29;20376;-73
2023/12/22 01:20:09;;;;;;;58.33;23.53;;;;;;;;;;4926826;29;20237;-73
2023/12/22 01:22:38;;;;;;;61.83;25.20;;;;;;;;;;4925224;29;20242;-73
2023/12/22 01:25:03;;;;;;;60.27;24.90;;;;;;;;;;4927142;29;20230;-72
2023/12/22 01:27:29;;;;;;;58.97;22.97;;;;;;;;;;4926180;29;20233;-72
2023/12/22 01:29:54;;;;;;;58.40;22.13;;;;;;;;;;4925263;29;20365;-73
2023/12/22 01:32:19;;;;;;;53.67;21.57;;;;;;;;;;4908848;29;20313;-73
2023/12/22 01:34:45;;;;;;;52.20;21.13;;;;;;;;;;4925224;29;20260;-73
2023/12/22 01:37:10;;;;;;;49.00;20.17;;;;;;;;;;4927797;29;20252;-73
2023/12/22 01:39:35;;;;;;;45.07;18.40;;;;;;;;;;4924587;29;20604;-73
2023/12/22 01:42:01;;;;;;;46.23;19.60;;;;;;;;;;4925841;29;20249;-73
2023/12/22 01:44:26;;;;;;;44.57;19.03;;;;;;;;;;4925970;29;20732;-74
2023/12/22 01:46:52;;;;;;;39.60;17.13;;;;;;;;;;4925431;29;20626;-73
2023/12/22 01:49:17;;;;;;;40.53;17.50;;;;;;;;;;4920321;29;20285;-72
2023/12/22 01:51:42;;;;;;;39.27;17.83;;;;;;;;;;4907563;29;20221;-73
2023/12/22 01:54:08;;;;;;;37.97;16.57;;;;;;;;;;4909683;29;20228;-73
2023/12/22 01:56:33;;;;;;;37.93;17.73;;;;;;;;;;4924814;29;20249;-73
2023/12/22 01:58:59;;;;;;;41.07;17.70;;;;;;;;;;4909255;29;20229;-74
2023/12/22 02:01:24;;;;;;;37.47;17.10;;;;;;;;;;4926519;29;20237;-73
2023/12/22 02:03:52;;;;;;;37.77;16.33;;;;;;;;;;4924164;29;20238;-74
2023/12/22 02:06:17;;;;;;;36.50;16.60;;;;;;;;;;4909639;29;20236;-73
2023/12/22 02:08:42;;;;;;;40.57;17.30;;;;;;;;;;4924750;29;20233;-74
2023/12/22 02:11:08;;;;;;;35.23;15.57;;;;;;;;;;4924781;29;20952;-74
2023/12/22 02:13:33;;;;;;;41.90;16.10;;;;;;;;;;4922866;29;20234;-74
2023/12/22 02:16:01;;;;;;;37.93;16.43;;;;;;;;;;4926433;29;20234;-73
2023/12/22 02:18:26;;;;;;;36.27;15.90;;;;;;;;;;4924604;29;20728;-73
2023/12/22 02:20:52;;;;;;;34.67;16.20;;;;;;;;;;4906215;29;20967;-72
2023/12/22 02:23:17;;;;;;;48.60;20.20;;;;;;;;;;4925086;29;20232;-73
2023/12/22 02:25:43;;;;;;;46.57;19.07;;;;;;;;;;4899179;29;20783;-74
2023/12/22 02:28:09;;;;;;;56.10;24.47;;;;;;;;;;4909282;29;20984;-74
2023/12/22 02:31:01;;;;;;;66.90;26.13;;;;;;;;;;4924860;29;20910;-73
2023/12/22 02:33:26;;;;;;;65.00;26.63;;;;;;;;;;4923936;29;20232;-73
2023/12/22 02:35:52;;;;;;;67.70;27.77;;;;;;;;;;4908213;29;20237;-72
2023/12/22 02:38:17;;;;;;;61.37;26.20;;;;;;;;;;4926562;29;20696;-74
2023/12/22 02:40:42;;;;;;;64.50;26.67;;;;;;;;;;4924130;29;20221;-74
2023/12/22 02:43:08;;;;;;;63.80;25.43;;;;;;;;;;4925100;29;20221;-73
2023/12/22 02:45:34;;;;;;;53.70;23.37;;;;;;;;;;4924607;29;20221;-73
2023/12/22 02:47:59;;;;;;;51.47;20.10;;;;;;;;;;4924978;29;20233;-73
2023/12/22 02:50:24;;;;;;;53.13;21.00;;;;;;;;;;4924446;29;20288;-73
2023/12/22 02:52:50;;;;;;;51.90;21.27;;;;;;;;;;4906090;29;20238;-73
2023/12/22 02:55:15;;;;;;;47.53;19.93;;;;;;;;;;4924812;29;20285;-73
2023/12/22 02:57:41;;;;;;;46.17;19.67;;;;;;;;;;4926257;29;20229;-73
2023/12/22 03:00:07;;;;;;;46.40;19.00;;;;;;;;;;4902712;29;20224;-73
2023/12/22 03:02:32;;;;;;;47.97;19.00;;;;;;;;;;4919563;29;20225;-73
2023/12/22 03:04:57;;;;;;;48.73;18.10;;;;;;;;;;4925415;29;20253;-73
2023/12/22 03:07:22;;;;;;;46.93;19.33;;;;;;;;;;4925209;29;20241;-73
2023/12/22 03:09:48;;;;;;;51.43;19.17;;;;;;;;;;4907817;29;20222;-73
2023/12/22 03:12:13;;;;;;;45.47;18.27;;;;;;;;;;4901689;29;20831;-72
2023/12/22 03:14:39;;;;;;;44.30;18.60;;;;;;;;;;4925584;29;20229;-73
2023/12/22 03:17:04;;;;;;;44.83;18.47;;;;;;;;;;4925249;29;20288;-73
2023/12/22 03:19:30;;;;;;;45.93;18.50;;;;;;;;;;4905180;29;20235;-73
2023/12/22 03:21:56;;;;;;;45.33;18.50;;;;;;;;;;4924314;29;20608;-73
2023/12/22 03:24:22;;;;;;;44.07;17.70;;;;;;;;;;4926481;29;20316;-74
2023/12/22 03:26:48;;;;;;;49.30;18.63;;;;;;;;;;4924852;29;20328;-74
2023/12/22 03:29:13;;;;;;;44.67;18.47;;;;;;;;;;4925922;29;20599;-74
2023/12/22 03:31:38;;;;;;;56.13;21.93;;;;;;;;;;4907892;29;20256;-74
2023/12/22 03:34:04;;;;;;;40.87;17.17;;;;;;;;;;4926127;29;20222;-74
2023/12/22 03:36:29;;;;;;;40.03;17.63;;;;;;;;;;4924067;29;20655;-74
2023/12/22 03:38:54;;;;;;;66.73;24.53;;;;;;;;;;4923699;29;20217;-74
2023/12/22 03:41:20;;;;;;;56.37;24.37;;;;;;;;;;4924166;29;20252;-74
2023/12/22 03:43:45;;;;;;;48.60;21.47;;;;;;;;;;4923906;29;20308;-74
2023/12/22 03:46:11;;;;;;;40.63;18.57;;;;;;;;;;4925830;29;20604;-73
2023/12/22 03:48:36;;;;;;;41.17;17.80;;;;;;;;;;4923783;29;20261;-74
2023/12/22 03:51:01;;;;;;;50.67;21.70;;;;;;;;;;4925098;29;20263;-74
2023/12/22 03:53:27;;;;;;;47.07;21.07;;;;;;;;;;4926319;29;20229;-73
2023/12/22 03:55:52;;;;;;;38.53;15.63;;;;;;;;;;4924596;29;20630;-73
2023/12/22 03:58:17;;;;;;;40.93;16.53;;;;;;;;;;4925006;29;20799;-74
2023/12/22 04:00:43;;;;;;;36.43;17.03;;;;;;;;;;4908307;29;21149;-72
2023/12/22 04:03:08;;;;;;;35.20;16.13;;;;;;;;;;4926782;29;20221;-73
2023/12/22 04:05:33;;;;;;;42.40;17.33;;;;;;;;;;4927861;29;20304;-72
2023/12/22 04:07:59;;;;;;;38.90;17.20;;;;;;;;;;4928911;29;20679;-73
2023/12/22 04:10:24;;;;;;;36.53;17.23;;;;;;;;;;4911819;29;20213;-73
2023/12/22 04:12:49;;;;;;;50.07;18.70;;;;;;;;;;4927708;29;20237;-71
2023/12/22 04:15:15;;;;;;;43.63;17.37;;;;;;;;;;4927429;29;20238;-73
2023/12/22 04:17:40;;;;;;;37.53;16.20;;;;;;;;;;4928350;29;20234;-72
2023/12/22 04:20:06;;;;;;;41.23;16.33;;;;;;;;;;4910981;29;20233;-73
2023/12/22 04:22:31;;;;;;;36.47;15.33;;;;;;;;;;4926978;29;20239;-73
2023/12/22 04:24:57;;;;;;;37.20;15.43;;;;;;;;;;4911731;29;20304;-73
2023/12/22 04:27:22;;;;;;;34.87;16.10;;;;;;;;;;4927467;29;20238;-73
2023/12/22 04:29:47;;;;;;;39.97;17.20;;;;;;;;;;4926369;29;20257;-73
2023/12/22 04:32:13;;;;;;;42.77;17.27;;;;;;;;;;4928957;29;20257;-73
2023/12/22 04:34:38;;;;;;;39.87;16.80;;;;;;;;;;4919495;29;20264;-73
2023/12/22 04:37:03;;;;;;;38.90;16.87;;;;;;;;;;4928121;29;20704;-73
2023/12/22 04:39:29;;;;;;;39.67;17.00;;;;;;;;;;4910176;29;20233;-73
2023/12/22 04:41:54;;;;;;;44.07;18.63;;;;;;;;;;4926476;29;20233;-73
2023/12/22 04:44:19;;;;;;;40.77;17.70;;;;;;;;;;4908071;29;20226;-72
2023/12/22 04:46:44;;;;;;;54.03;22.23;;;;;;;;;;4908207;29;20245;-73
2023/12/22 04:49:10;;;;;;;54.47;22.43;;;;;;;;;;4928675;29;20803;-74
2023/12/22 04:51:35;;;;;;;47.83;19.60;;;;;;;;;;4927909;29;20237;-73
2023/12/22 04:54:00;;;;;;;44.83;18.33;;;;;;;;;;4926927;29;20217;-73
2023/12/22 04:56:26;;;;;;;39.93;17.17;;;;;;;;;;4910593;29;20233;-74
2023/12/22 04:58:51;;;;;;;41.57;17.37;;;;;;;;;;4918789;29;20605;-74
2023/12/22 05:01:17;;;;;;;49.47;21.37;;;;;;;;;;4927605;29;20946;-74
2023/12/22 05:03:43;;;;;;;43.33;19.23;;;;;;;;;;4925872;29;20288;-73
2023/12/22 05:06:08;;;;;;;39.33;15.97;;;;;;;;;;4910613;29;20233;-73
2023/12/22 05:08:34;;;;;;;32.10;15.63;;;;;;;;;;4911107;29;20225;-73
2023/12/22 05:10:59;;;;;;;37.60;16.53;;;;;;;;;;4910358;29;20277;-73
2023/12/22 05:13:24;;;;;;;37.70;17.43;;;;;;;;;;4926434;29;20252;-72
2023/12/22 05:15:50;;;;;;;40.83;18.20;;;;;;;;;;4908868;29;20691;-74
2023/12/22 05:18:15;;;;;;;38.30;17.57;;;;;;;;;;4911228;29;20225;-74
2023/12/22 05:20:40;;;;;;;36.90;16.90;;;;;;;;;;4926242;29;20229;-74
2023/12/22 05:23:06;;;;;;;37.43;17.13;;;;;;;;;;4926148;29;20226;-73
2023/12/22 05:25:31;;;;;;;33.90;16.33;;;;;;;;;;4925545;29;20225;-74
2023/12/22 05:27:57;;;;;;;35.83;16.93;;;;;;;;;;4910478;29;20240;-73
2023/12/22 05:30:22;;;;;;;36.47;17.00;;;;;;;;;;4907117;29;20217;-73
2023/12/22 05:32:47;;;;;;;36.67;16.57;;;;;;;;;;4924714;29;20233;-74
2023/12/22 05:35:13;;;;;;;39.07;17.40;;;;;;;;;;4926562;29;20233;-73
2023/12/22 05:37:38;;;;;;;35.37;16.67;;;;;;;;;;4910119;29;20230;-73
2023/12/22 05:40:06;;;;;;;40.30;17.63;;;;;;;;;;4925617;29;20225;-73
2023/12/22 05:42:31;;;;;;;39.20;17.70;;;;;;;;;;4909685;29;20787;-72
2023/12/22 05:44:58;;;;;;;39.40;17.67;;;;;;;;;;4927303;29;20316;-73
2023/12/22 05:47:23;;;;;;;37.60;17.17;;;;;;;;;;4928285;29;20236;-72
2023/12/22 05:49:48;;;;;;;39.50;16.73;;;;;;;;;;4913772;29;20608;-73
2023/12/22 05:52:14;;;;;;;37.53;16.83;;;;;;;;;;4926389;29;20304;-72
2023/12/22 05:54:39;;;;;;;38.43;17.03;;;;;;;;;;4925087;29;20670;-72
2023/12/22 05:57:07;;;;;;;37.47;16.43;;;;;;;;;;4918644;29;20229;-73
2023/12/22 05:59:33;;;;;;;33.80;15.53;;;;;;;;;;4934553;29;20233;-71
2023/12/22 06:01:59;;;;;;;34.83;15.67;;;;;;;;;;4927568;29;20231;-72
2023/12/22 06:04:24;;;;;;;33.30;15.23;;;;;;;;;;4931624;29;21036;-72
2023/12/22 06:06:50;;;;;;;33.73;15.80;;;;;;;;;;4923493;29;20245;-71
2023/12/22 06:09:17;;;;;;;36.20;16.23;;;;;;;;;;4922957;29;20233;-73
2023/12/22 06:11:42;;;;;;;36.87;17.07;;;;;;;;;;4908017;29;20237;-73
2023/12/22 06:14:07;;;;;;;37.40;17.67;;;;;;;;;;4924857;29;20348;-72
2023/12/22 06:16:34;;;;;;;38.83;18.37;;;;;;;;;;4922031;29;20973;-73
2023/12/22 06:18:59;;;;;;;35.53;16.57;;;;;;;;;;4913108;29;20226;-72
2023/12/22 06:21:25;;;;;;;34.33;16.30;;;;;;;;;;4920792;29;20233;-72
2023/12/22 06:23:51;;;;;;;32.93;15.87;;;;;;;;;;4924253;29;20233;-72
2023/12/22 06:26:16;;;;;;;30.13;15.83;;;;;;;;;;4924672;29;20321;-73
2023/12/22 06:28:41;;;;;;;35.27;16.80;;;;;;;;;;4923656;29;20225;-72
2023/12/22 06:31:07;;;;;;;34.70;17.00;;;;;;;;;;4908380;29;20676;-72
2023/12/22 06:33:32;;;;;;;38.47;16.17;;;;;;;;;;4924286;29;20324;-73
2023/12/22 06:35:58;;;;;;;35.23;15.27;;;;;;;;;;4908253;29;20230;-72
2023/12/22 06:38:23;;;;;;;37.53;16.33;;;;;;;;;;4922827;29;20229;-73
2023/12/22 06:40:48;;;;;;;36.67;16.20;;;;;;;;;;4924397;29;20655;-72
2023/12/22 06:43:14;;;;;;;37.17;15.43;;;;;;;;;;4907599;29;20245;-72
2023/12/22 06:45:40;;;;;;;32.10;15.13;;;;;;;;;;4924959;29;20222;-72
2023/12/22 06:48:06;;;;;;;41.90;17.30;;;;;;;;;;4929069;29;20276;-72
2023/12/22 06:50:31;;;;;;;39.03;16.77;;;;;;;;;;4921238;29;20233;-73
2023/12/22 06:52:56;;;;;;;33.40;16.30;;;;;;;;;;4926683;29;20225;-72
2023/12/22 06:55:21;;;;;;;36.37;16.00;;;;;;;;;;4926256;29;20233;-72
2023/12/22 06:57:47;;;;;;;34.03;15.60;;;;;;;;;;4924829;29;20226;-72
2023/12/22 07:00:13;;;;;;;35.53;15.73;;;;;;;;;;4908184;29;20226;-72
2023/12/22 07:02:40;;;;;;;31.67;15.33;;;;;;;;;;4925927;29;20233;-73
2023/12/22 07:05:09;;;;;;;30.13;14.97;;;;;;;;;;4925324;29;20270;-73
2023/12/22 07:07:34;;;;;;;38.67;19.23;;;;;;;;;;4925341;29;20242;-72
2023/12/22 07:10:00;;;;;;;40.87;17.90;;;;;;;;;;4925051;29;20302;-72
2023/12/22 07:12:25;;;;;;;31.67;15.53;;;;;;;;;;4907437;29;20229;-73
2023/12/22 07:14:51;;;;;;;37.30;17.53;;;;;;;;;;4924957;29;20767;-71
2023/12/22 07:17:16;;;;;;;34.30;16.77;;;;;;;;;;4908416;29;20228;-73
2023/12/22 07:19:41;;;;;;;38.17;18.10;;;;;;;;;;4926469;29;20228;-72
2023/12/22 07:22:07;;;;;;;40.10;19.80;;;;;;;;;;4925361;29;20229;-72
2023/12/22 07:24:32;;;;;;;42.80;20.70;;;;;;;;;;4905137;29;21011;-72
2023/12/22 07:26:57;;;;;;;43.33;19.43;;;;;;;;;;4922722;29;20321;-71
2023/12/22 07:29:23;;;;;;;36.33;17.37;;;;;;;;;;4923420;29;20317;-71
2023/12/22 07:31:48;;;;;;;35.57;17.13;;;;;;;;;;4924037;29;20236;-73
2023/12/22 07:34:14;;;;;;;38.47;17.10;;;;;;;;;;4924352;29;20308;-71
2023/12/22 07:36:40;;;;;;;36.10;17.00;;;;;;;;;;4923548;29;20245;-71
2023/12/22 07:39:06;;;;;;;33.67;15.83;;;;;;;;;;4910769;29;20378;-71
2023/12/22 07:41:35;;;;;;;38.63;18.47;;;;;;;;;;4927141;29;20229;-72
2023/12/22 07:44:01;;;;;;;35.90;17.53;;;;;;;;;;4928340;29;20660;-72
2023/12/22 07:46:28;;;;;;;36.03;16.83;;;;;;;;;;4910168;29;20319;-73
2023/12/22 07:48:53;;;;;;;37.57;16.77;;;;;;;;;;4910724;29;20840;-73
2023/12/22 07:51:18;;;;;;;40.67;19.93;;;;;;;;;;4926036;29;20225;-72
2023/12/22 07:53:44;;;;;;;36.73;17.77;;;;;;;;;;4911675;29;20236;-72
2023/12/22 07:56:10;;;;;;;40.17;17.17;;;;;;;;;;4910198;29;20253;-73
2023/12/22 07:58:36;;;;;;;44.40;20.90;;;;;;;;;;4928722;29;20315;-72
2023/12/22 08:01:01;;;;;;;38.13;18.70;;;;;;;;;;4912014;29;20257;-72
2023/12/22 08:03:27;;;;;;;36.97;17.10;;;;;;;;;;4903461;29;20261;-72
2023/12/22 08:05:53;;;;;;;41.30;19.93;;;;;;;;;;4926995;29;20241;-72
2023/12/22 08:08:18;;;;;;;43.67;20.07;;;;;;;;;;4911861;29;20226;-73
2023/12/22 08:10:43;;;;;;;42.37;19.60;;;;;;;;;;4926156;29;20225;-72
2023/12/22 08:13:09;;;;;;;44.53;20.67;;;;;;;;;;4928583;29;20232;-74
2023/12/22 08:15:34;;;;;;;46.10;22.50;;;;;;;;;;4927414;29;20822;-74
2023/12/22 08:18:00;;;;;;;48.87;22.90;;;;;;;;;;4927658;29;20218;-74
2023/12/22 08:20:25;;;;;;;40.33;19.30;;;;;;;;;;4927630;29;20696;-73
2023/12/22 08:22:51;;;;;;;40.43;18.70;;;;;;;;;;4910010;29;20225;-73
2023/12/22 08:25:17;;;;;;;37.63;18.20;;;;;;;;;;4910862;29;21006;-72
2023/12/22 08:27:42;;;;;;;39.43;17.53;;;;;;;;;;4926493;29;20221;-72
2023/12/22 08:30:08;;;;;;;41.13;17.53;;;;;;;;;;4928041;29;20227;-74
2023/12/22 08:32:34;;;;;;;36.73;16.93;;;;;;;;;;4928723;29;20328;-74
2023/12/22 08:34:59;;;;;;;37.63;17.83;;;;;;;;;;4928010;29;20282;-74
2023/12/22 08:37:28;;;;;;;49.17;21.20;;;;;;;;;;4928579;29;20234;-75
2023/12/22 08:39:54;;;;;;;50.03;21.97;;;;;;;;;;4908846;29;20237;-75
2023/12/22 08:42:19;;;;;;;53.80;21.40;;;;;;;;;;4929766;29;20225;-74
2023/12/22 08:44:44;;;;;;;42.50;19.73;;;;;;;;;;4928573;29;20225;-73
2023/12/22 08:47:10;;;;;;;45.73;19.20;;;;;;;;;;4926971;29;20229;-74
2023/12/22 08:49:35;;;;;;;40.77;18.07;;;;;;;;;;4927759;29;20338;-74
2023/12/22 08:52:01;;;;;;;66.93;26.10;;;;;;;;;;4929549;29;20226;-74
2023/12/22 08:54:27;;;;;;;53.67;22.77;;;;;;;;;;4929150;29;20669;-74
2023/12/22 08:56:52;;;;;;;55.43;22.57;;;;;;;;;;4927554;29;20241;-73
2023/12/22 08:59:18;;;;;;;48.67;21.47;;;;;;;;;;4927049;29;21430;-74
2023/12/22 09:01:43;;;;;;;43.13;18.67;;;;;;;;;;4928220;29;20238;-74
2023/12/22 09:04:10;;;;;;;40.87;18.23;;;;;;;;;;4925586;29;20233;-73
2023/12/22 09:06:35;;;;;;;38.07;17.90;;;;;;;;;;4925698;29;20244;-74
2023/12/22 09:09:00;;;;;;;43.07;18.17;;;;;;;;;;4926760;29;20222;-76
2023/12/22 09:11:26;;;;;;;43.77;18.90;;;;;;;;;;4928365;29;20308;-73
2023/12/22 09:13:51;;;;;;;41.67;19.60;;;;;;;;;;4910253;29;20630;-73
2023/12/22 09:16:22;;;;;;;41.77;19.77;;;;;;;;;;4927733;29;20233;-73
2023/12/22 09:18:48;;;;;;;43.60;20.13;;;;;;;;;;4910210;29;20272;-74
2023/12/22 09:21:13;;;;;;;43.37;19.77;;;;;;;;;;4925918;29;20339;-73
2023/12/22 09:23:39;;;;;;;50.63;21.90;;;;;;;;;;4918793;29;20229;-73
2023/12/22 09:26:04;;;;;;;46.67;20.73;;;;;;;;;;4927131;29;20229;-73
2023/12/22 09:28:30;;;;;;;51.80;20.53;;;;;;;;;;4926808;29;20343;-72
2023/12/22 09:30:55;;;;;;;48.87;21.53;;;;;;;;;;4927146;29;20260;-74
2023/12/22 09:33:22;;;;;;;45.30;22.07;;;;;;;;;;4927344;29;20217;-73
2023/12/22 09:35:47;;;;;;;48.93;22.87;;;;;;;;;;4917492;29;20745;-73
2023/12/22 09:38:13;;;;;;;52.77;24.50;;;;;;;;;;4926195;29;20233;-73
2023/12/22 09:40:39;;;;;;;49.23;23.10;;;;;;;;;;4925232;29;20229;-73
2023/12/22 09:43:05;;;;;;;50.43;22.70;;;;;;;;;;4906080;29;20305;-73
2023/12/22 09:45:30;;;;;;;44.63;20.07;;;;;;;;;;4922539;29;20364;-73
2023/12/22 09:47:55;;;;;;;53.80;21.80;;;;;;;;;;4925885;29;20229;-73
2023/12/22 09:50:39;;;;;;;50.17;22.60;;;;;;;;;;4909915;29;20317;-74
2023/12/22 09:53:05;;;;;;;40.40;18.60;;;;;;;;;;4925571;29;20225;-73
2023/12/22 09:55:32;;;;;;;44.93;20.30;;;;;;;;;;4909644;29;20293;-71
2023/12/22 09:57:58;;;;;;;39.33;18.10;;;;;;;;;;4925004;29;20320;-74
2023/12/22 10:00:23;;;;;;;38.93;18.83;;;;;;;;;;4920264;29;20300;-73
2023/12/22 10:02:48;;;;;;;43.80;18.33;;;;;;;;;;4924663;29;20229;-73
2023/12/22 10:05:14;;;;;;;40.07;18.87;;;;;;;;;;4925324;29;20224;-73
2023/12/22 10:07:40;;;;;;;39.67;17.80;;;;;;;;;;4924393;29;21143;-73
2023/12/22 10:10:05;;;;;;;46.17;18.97;;;;;;;;;;4925835;29;20252;-72
2023/12/22 10:12:31;;;;;;;57.73;28.37;;;;;;;;;;4909132;29;20793;-72
2023/12/22 10:14:57;;;;;;;48.03;23.63;;;;;;;;;;4925270;29;20217;-71
2023/12/22 10:17:22;;;;;;;37.83;17.53;;;;;;;;;;4925444;29;20229;-72
2023/12/22 10:19:48;;;;;;;38.10;17.70;;;;;;;;;;4925282;29;20285;-72
2023/12/22 10:22:13;;;;;;;36.53;17.93;;;;;;;;;;4925576;29;20233;-71
2023/12/22 10:24:46;;;;;;;37.50;17.50;;;;;;;;;;4926689;29;20244;-72
2023/12/22 10:27:12;;;;;;;36.20;17.37;;;;;;;;;;4926043;29;20221;-73
2023/12/22 10:29:37;;;;;;;33.67;16.53;;;;;;;;;;4909047;29;20225;-72
2023/12/22 10:32:03;;;;;;;41.47;19.20;;;;;;;;;;4909860;29;20236;-73
2023/12/22 10:34:29;;;;;;;34.00;17.47;;;;;;;;;;4926783;29;20222;-72
2023/12/22 10:36:54;;;;;;;36.97;17.63;;;;;;;;;;4924487;29;20751;-72
2023/12/22 10:39:21;;;;;;;40.33;19.23;;;;;;;;;;4924635;29;20652;-72
2023/12/22 10:41:46;;;;;;;37.67;17.93;;;;;;;;;;4909272;29;20260;-72
2023/12/22 10:44:11;;;;;;;36.60;18.27;;;;;;;;;;4925176;29;20217;-73
2023/12/22 10:46:37;;;;;;;40.83;17.80;;;;;;;;;;4924870;29;20927;-74
2023/12/22 10:49:04;;;;;;;31.80;14.87;;;;;;;;;;4918892;29;20249;-72
2023/12/22 10:51:32;;;;;;;26.13;11.00;;;;;;;;;;4911159;29;20236;-72
2023/12/22 10:53:57;;;;;;;18.53;9.27;;;;;;;;;;4926507;29;20228;-73
2023/12/22 10:56:23;;;;;;;19.43;9.20;;;;;;;;;;4925631;29;20245;-74
2023/12/22 10:58:48;;;;;;;17.63;8.90;;;;;;;;;;4909084;29;20229;-73
2023/12/22 11:01:14;;;;;;;20.63;8.93;;;;;;;;;;4925652;29;20608;-73
2023/12/22 11:03:39;;;;;;;18.63;9.17;;;;;;;;;;4909754;29;20253;-72
2023/12/22 11:06:05;;;;;;;21.93;10.13;;;;;;;;;;4924717;29;20264;-72
2023/12/22 11:08:30;;;;;;;32.97;12.53;;;;;;;;;;4924984;29;20723;-72
2023/12/22 11:10:56;;;;;;;21.97;9.80;;;;;;;;;;4914244;29;20630;-72
2023/12/22 11:13:22;;;;;;;20.13;8.47;;;;;;;;;;4926424;29;20229;-73
2023/12/22 11:15:47;;;;;;;15.40;7.37;;;;;;;;;;4928174;29;20237;-73
2023/12/22 11:18:12;;;;;;;20.10;7.17;;;;;;;;;;4930717;29;20229;-72
2023/12/22 11:20:38;;;;;;;13.50;6.87;;;;;;;;;;4926662;29;20225;-73
2023/12/22 11:23:03;;;;;;;16.43;7.00;;;;;;;;;;4927819;29;20229;-72
2023/12/22 11:25:29;;;;;;;12.30;6.50;;;;;;;;;;4911602;29;20264;-72
2023/12/22 11:27:54;;;;;;;14.70;6.70;;;;;;;;;;4910416;29;20234;-73
2023/12/22 11:30:20;;;;;;;12.60;6.07;;;;;;;;;;4927471;29;20312;-73
2023/12/22 11:32:45;;;;;;;14.20;6.40;;;;;;;;;;4910722;29;20234;-73
2023/12/22 11:35:11;;;;;;;11.30;5.90;;;;;;;;;;4926674;29;20281;-73
2023/12/22 11:37:37;;;;;;;13.93;6.30;;;;;;;;;;4927112;29;20242;-72
2023/12/22 11:40:02;;;;;;;14.57;6.80;;;;;;;;;;4928087;29;20214;-72
2023/12/22 11:42:31;;;;;;;11.67;6.17;;;;;;;;;;4927310;29;20225;-72
2023/12/22 11:44:57;;;;;;;13.83;6.60;;;;;;;;;;4927026;29;20217;-72
2023/12/22 11:47:22;;;;;;;13.10;6.27;;;;;;;;;;4911888;29;21139;-72
2023/12/22 11:49:50;;;;;;;9.60;4.73;;;;;;;;;;4928659;29;20287;-72
2023/12/22 11:52:15;;;;;;;4.83;3.30;;;;;;;;;;4933172;29;20225;-72
2023/12/22 11:54:44;;;;;;;6.50;3.80;;;;;;;;;;4910532;29;20280;-72
2023/12/22 11:57:28;;;;;;;8.27;3.97;;;;;;;;;;4928609;28;20237;-72
2023/12/22 11:59:54;;;;;;;4.33;2.30;;;;;;;;;;4928283;29;20232;-72
2023/12/22 12:02:20;;;;;;;5.30;2.20;;;;;;;;;;4928207;29;20214;-72
2023/12/22 12:04:47;;;;;;;4.00;2.23;;;;;;;;;;4910986;29;20233;-73
2023/12/22 12:07:31;;;;;;;3.70;2.40;;;;;;;;;;4872352;29;1231135;-73
2023/12/22 12:09:56;;;;;;;4.07;2.60;;;;;;;;;;4928840;29;20767;-73
2023/12/22 12:12:22;;;;;;;4.67;2.80;;;;;;;;;;4912092;29;20225;-73
2023/12/22 12:14:48;;;;;;;8.27;3.43;;;;;;;;;;4926554;29;20294;-73
2023/12/22 12:17:15;;;;;;;5.07;3.07;;;;;;;;;;4927583;29;20781;-73
2023/12/22 12:19:44;;;;;;;4.50;2.90;;;;;;;;;;4927314;29;20675;-73
2023/12/22 12:22:11;;;;;;;4.17;2.40;;;;;;;;;;4927552;29;20235;-72
2023/12/22 12:24:37;;;;;;;3.33;2.30;;;;;;;;;;4911535;29;20234;-72
2023/12/22 12:27:03;;;;;;;4.90;2.10;;;;;;;;;;4911950;29;20261;-72
2023/12/22 12:29:28;;;;;;;2.83;1.80;;;;;;;;;;4918827;29;20253;-73
2023/12/22 12:31:53;;;;;;;2.70;1.77;;;;;;;;;;4926393;29;20710;-73
2023/12/22 12:34:20;;;;;;;3.37;2.20;;;;;;;;;;4912744;29;20222;-73
2023/12/22 12:36:46;;;;;;;3.73;2.30;;;;;;;;;;4927098;29;20257;-72
2023/12/22 12:39:14;;;;;;;3.37;2.30;;;;;;;;;;4911639;29;20304;-73
2023/12/22 12:41:40;;;;;;;2.43;1.90;;;;;;;;;;4927917;29;20324;-73
2023/12/22 12:44:06;;;;;;;4.23;1.63;;;;;;;;;;4911525;29;20260;-72
2023/12/22 12:46:37;;;;;;;1.80;1.60;;;;;;;;;;4926417;29;20604;-73
2023/12/22 12:49:06;;;;;;;3.27;1.87;;;;;;;;;;4926957;29;20229;-72
2023/12/22 12:51:41;;;;;;;2.57;1.97;;;;;;;;;;4925621;29;20288;-72
2023/12/22 12:54:06;;;;;;;3.33;2.20;;;;;;;;;;4926825;29;20726;-73
2023/12/22 12:56:39;;;;;;;4.50;2.10;;;;;;;;;;4910411;29;20814;-73
2023/12/22 12:59:22;;;;;;;3.57;2.30;;;;;;;;;;4926273;29;20228;-73
2023/12/22 13:01:48;;;;;;;4.33;2.47;;;;;;;;;;4925842;29;20340;-72
2023/12/22 13:04:13;;;;;;;6.10;2.60;;;;;;;;;;4926352;29;20674;-72
2023/12/22 13:06:48;;;;;;;4.00;2.33;;;;;;;;;;4908079;29;20686;-72
2023/12/22 13:09:14;;;;;;;4.67;2.40;;;;;;;;;;4927039;29;20220;-72
2023/12/22 13:11:40;;;;;;;5.53;2.53;;;;;;;;;;4910278;29;20230;-72
2023/12/22 13:14:07;;;;;;;4.73;2.40;;;;;;;;;;4925345;29;20226;-72
2023/12/22 13:16:32;;;;;;;4.73;2.80;;;;;;;;;;4927005;29;20268;-72
2023/12/22 13:18:58;;;;;;;7.37;2.90;;;;;;;;;;4927634;29;20692;-72
2023/12/22 13:21:23;;;;;;;5.27;2.77;;;;;;;;;;4910994;29;20296;-71
2023/12/22 13:24:07;;;;;;;6.17;3.40;;;;;;;;;;4900583;29;20234;-72
2023/12/22 13:26:32;;;;;;;5.70;3.30;;;;;;;;;;4928216;29;20233;-72
2023/12/22 13:28:59;;;;;;;7.93;3.90;;;;;;;;;;4926281;29;20280;-72
2023/12/22 13:31:25;;;;;;;8.77;3.50;;;;;;;;;;4926840;29;20233;-72
2023/12/22 13:33:50;;;;;;;5.80;3.40;;;;;;;;;;4925032;29;20245;-73
2023/12/22 13:36:15;;;;;;;6.83;3.60;;;;;;;;;;4910046;29;20722;-70
2023/12/22 13:38:45;;;;;;;5.70;3.20;;;;;;;;;;4926661;29;20225;-72
2023/12/22 13:41:10;;;;;;;5.30;2.90;;;;;;;;;;4924872;29;20229;-72
2023/12/22 13:43:36;;;;;;;5.43;3.10;;;;;;;;;;4909167;29;20262;-74
2023/12/22 13:46:01;;;;;;;5.50;2.80;;;;;;;;;;4925137;29;20229;-72
2023/12/22 13:48:26;;;;;;;5.57;3.30;;;;;;;;;;4925655;29;20918;-72
2023/12/22 13:50:58;;;;;;;5.90;3.57;;;;;;;;;;4925837;29;20608;-73
2023/12/22 13:53:24;;;;;;;6.23;4.00;;;;;;;;;;4925811;29;20233;-72
2023/12/22 13:55:58;;;;;;;10.17;4.47;;;;;;;;;;4924627;29;20707;-72
2023/12/22 13:58:24;;;;;;;7.80;4.10;;;;;;;;;;4926652;29;20217;-72
2023/12/22 14:00:50;;;;;;;7.87;4.30;;;;;;;;;;4924997;29;20236;-73
2023/12/22 14:03:21;;;;;;;10.27;5.07;;;;;;;;;;4927128;29;20229;-73
2023/12/22 14:05:47;;;;;;;10.70;4.90;;;;;;;;;;4924840;29;20233;-73
2023/12/22 14:08:12;;;;;;;7.70;3.97;;;;;;;;;;4925752;29;20225;-74
2023/12/22 14:10:37;;;;;;;5.93;3.80;;;;;;;;;;4925824;29;20264;-72
2023/12/22 14:13:03;;;;;;;5.33;3.40;;;;;;;;;;4925876;29;20221;-72